This is the latest recevied weather packets stored in our database for station/object Huerbel. If no packets are shown the sender has not sent any weather packets the latest 10 day(s).
| Time | Temp. | Humidity | Pressure | Rain* | Wind** | Luminosity | Snow |
|---|---|---|---|---|---|---|---|
| 1777761131 | 0° C | 100% | 1017.9 hPa | 0 mm | - | - | - |
| 1777759330 | 0° C | 100% | 1018 hPa | 0 mm | - | - | - |
| 1777757530 | 11.11° C | 67% | 1018.2 hPa | 0 mm | - | - | - |
| 1777755729 | 11.67° C | 66% | 1018.3 hPa | 0 mm | - | - | - |
| 1777753930 | 12.78° C | 62% | 1018.4 hPa | 0 mm | - | - | - |
| 1777752130 | 21.11° C | 47% | 1018.6 hPa | 0 mm | - | - | - |
| 1777750335 | 21.11° C | 47% | 1018.5 hPa | 0 mm | - | - | - |
| 1777748537 | 21.11° C | 47% | 1018.2 hPa | 0 mm | - | - | - |
| 1777746730 | 21.11° C | 47% | 1018.2 hPa | 0 mm | - | - | - |
| 1777744931 | 21.11° C | 48% | 1018.2 hPa | 0 mm | - | - | - |
| 1777743130 | 22.78° C | 43% | 1018.3 hPa | 0 mm | - | - | - |
| 1777741330 | 23.33° C | 30% | 1018.3 hPa | 0 mm | - | - | - |
| 1777739530 | 23.33° C | 30% | 1018.6 hPa | 0 mm | - | - | - |
| 1777737733 | 23.33° C | 34% | 1019 hPa | 0 mm | - | - | - |
| 1777735930 | 23.89° C | 31% | 1019.3 hPa | 0 mm | - | - | - |
| 1777734130 | 23.89° C | 26% | 1019.6 hPa | 0 mm | - | - | - |
| 1777732330 | 24.44° C | 32% | 1019.9 hPa | 0 mm | - | - | - |
| 1777730530 | 23.89° C | 33% | 1020.4 hPa | 0 mm | - | - | - |
| 1777728731 | 23.89° C | 31% | 1020.7 hPa | 0 mm | - | - | - |
| 1777726930 | 23.89° C | 31% | 1021 hPa | 0 mm | - | - | - |
| 1777725131 | 23.33° C | 30% | 1021.6 hPa | 0 mm | - | - | - |
| 1777723330 | 22.78° C | 32% | 1022.1 hPa | 0 mm | - | - | - |
| 1777721531 | 22.22° C | 34% | 1022.3 hPa | 0 mm | - | - | - |
| 1777719730 | 21.67° C | 35% | 1022.7 hPa | 0 mm | - | - | - |
| 1777717930 | 20.56° C | 35% | 1023 hPa | 0 mm | - | - | - |
* Rain since midnight (hover to see other rain measurements)
** Current wind speed in m/s (hover to see current wind gust speed)